Time;durP1;ratioP1;P1;durP2;ratioP2;P2;SDS_P1;SDS_P2;PMS_P1;PMS_P2;Temp;Humidity;BMP_temperature;BMP_pressure;BME280_temperature;BME280_humidity;BME280_pressure;Samples;Min_cycle;Max_cycle;Signal;HPM_P1;HPM_P2
2021/05/23 00:06:59;;;;;;;6.60;3.27;;;11.40;99.90;;;;;;5012796;28;20532;-81
2021/05/23 00:09:25;;;;;;;4.67;3.07;;;11.40;99.90;;;;;;5012848;28;20254;-80
2021/05/23 00:11:52;;;;;;;6.90;3.63;;;11.40;99.90;;;;;;5012886;28;20241;-81
2021/05/23 00:14:27;;;;;;;9.33;3.87;;;11.30;99.90;;;;;;5016152;28;20182;-81
2021/05/23 00:16:53;;;;;;;5.87;3.70;;;11.40;99.90;;;;;;5016164;28;20170;-80
2021/05/23 00:19:18;;;;;;;6.37;3.77;;;11.30;99.90;;;;;;5016073;28;20255;-80
2021/05/23 00:21:46;;;;;;;6.67;3.80;;;11.40;99.90;;;;;;5016230;28;20167;-80
2021/05/23 00:24:17;;;;;;;7.23;3.70;;;11.50;99.90;;;;;;5015752;28;20210;-81
2021/05/23 00:26:44;;;;;;;8.03;4.00;;;11.40;99.90;;;;;;5016039;28;20471;-80
2021/05/23 00:29:09;;;;;;;6.23;4.33;;;11.40;99.90;;;;;;5015634;28;20162;-80
2021/05/23 00:32:06;;;;;;;;;;;;;;;;;;;;;
2021/05/23 00:34:32;;;;;;;8.80;4.13;;;11.50;99.90;;;;;;5015422;28;20171;-80
2021/05/23 00:36:58;;;;;;;8.83;3.97;;;11.40;99.90;;;;;;5015544;28;20253;-80
2021/05/23 00:39:23;;;;;;;7.37;4.50;;;11.50;99.90;;;;;;5016228;28;20274;-80
2021/05/23 00:41:49;;;;;;;11.00;4.70;;;11.50;99.90;;;;;;5016098;28;20257;-80
2021/05/23 00:44:15;;;;;;;6.37;4.70;;;11.40;99.90;;;;;;5014639;28;20190;-80
2021/05/23 00:46:49;;;;;;;6.17;4.30;;;11.50;99.90;;;;;;5016072;28;20182;-79
2021/05/23 00:49:15;;;;;;;7.60;4.30;;;11.60;99.90;;;;;;5015976;28;20177;-81
2021/05/23 00:51:44;;;;;;;7.83;5.10;;;11.60;99.90;;;;;;5015547;28;20182;-80
2021/05/23 00:54:13;;;;;;;7.17;4.20;;;11.70;99.90;;;;;;5016514;28;20509;-80
2021/05/23 00:56:41;;;;;;;8.70;4.97;;;11.70;99.90;;;;;;5016005;28;20167;-81
2021/05/23 00:59:07;;;;;;;11.07;5.07;;;11.70;99.90;;;;;;5013709;28;20210;-81
2021/05/23 01:02:05;;;;;;;8.27;4.27;;;11.60;99.90;;;;;;5015389;28;20193;-80
2021/05/23 01:04:33;;;;;;;5.70;4.47;;;11.70;99.90;;;;;;5015378;28;20178;-80
2021/05/23 01:07:00;;;;;;;10.53;5.20;;;11.50;99.90;;;;;;5015339;28;20197;-80
2021/05/23 01:09:27;;;;;;;9.23;4.80;;;11.50;99.90;;;;;;5015173;28;20254;-80
2021/05/23 01:12:11;;;;;;;11.73;5.33;;;11.60;99.90;;;;;;5014847;28;20240;-80
2021/05/23 01:15:01;;;;;;;10.10;5.13;;;11.50;99.90;;;;;;5015602;28;20178;-80
2021/05/23 01:17:37;;;;;;;8.43;4.23;;;11.40;99.90;;;;;;5015339;28;20206;-80
2021/05/23 01:20:08;;;;;;;10.13;5.00;;;11.30;99.90;;;;;;5015209;28;20170;-80
2021/05/23 01:23:06;;;;;;;10.07;4.53;;;11.40;99.90;;;;;;5015028;28;20178;-80
2021/05/23 01:25:37;;;;;;;10.93;4.57;;;11.40;99.90;;;;;;5014649;28;20170;-80
2021/05/23 01:28:11;;;;;;;11.30;5.00;;;11.30;99.90;;;;;;5014973;28;20261;-80
2021/05/23 01:30:42;;;;;;;10.07;4.40;;;11.30;99.90;;;;;;5014373;28;20179;-80
2021/05/23 01:33:13;;;;;;;7.60;4.70;;;11.30;99.90;;;;;;5014923;28;20201;-80
2021/05/23 01:35:41;;;;;;;7.13;4.37;;;11.50;99.90;;;;;;5014879;28;20173;-80
2021/05/23 01:38:11;;;;;;;10.67;5.00;;;11.30;99.90;;;;;;5014740;28;20194;-80
2021/05/23 01:40:38;;;;;;;7.40;4.67;;;11.30;99.90;;;;;;5014469;28;20257;-80
2021/05/23 01:43:06;;;;;;;9.63;4.87;;;11.20;99.90;;;;;;5014718;28;20167;-80
2021/05/23 01:45:43;;;;;;;14.60;4.97;;;11.30;99.90;;;;;;5014389;28;20177;-81
2021/05/23 01:48:13;;;;;;;10.73;4.87;;;11.30;99.90;;;;;;5014368;28;20245;-81
2021/05/23 01:50:48;;;;;;;11.00;4.10;;;11.30;99.90;;;;;;5014401;28;20662;-80
2021/05/23 01:53:14;;;;;;;12.20;4.53;;;11.30;99.90;;;;;;5014378;28;20169;-80
2021/05/23 01:55:40;;;;;;;8.30;4.73;;;11.40;99.90;;;;;;5014378;28;20638;-80
2021/05/23 01:58:06;;;;;;;10.10;3.80;;;11.40;99.90;;;;;;5013875;28;20202;-80
2021/05/23 02:00:46;;;;;;;8.67;3.80;;;11.30;99.90;;;;;;5014181;28;20276;-80
2021/05/23 02:03:13;;;;;;;8.03;4.13;;;11.30;99.90;;;;;;5014244;28;20171;-80
2021/05/23 02:05:43;;;;;;;10.07;3.97;;;11.30;99.90;;;;;;5014226;28;20170;-81
2021/05/23 02:08:13;;;;;;;12.53;4.43;;;11.10;99.90;;;;;;5014124;28;20181;-80
2021/05/23 02:10:50;;;;;;;12.83;4.07;;;11.20;99.90;;;;;;5013332;28;20182;-80
2021/05/23 02:13:24;;;;;;;11.03;3.70;;;11.20;99.90;;;;;;5013528;28;20178;-80
2021/05/23 02:15:58;;;;;;;8.83;3.90;;;11.20;99.90;;;;;;5013951;28;20174;-80
2021/05/23 02:18:24;;;;;;;6.47;3.13;;;11.20;99.90;;;;;;5013855;28;20292;-80
2021/05/23 02:21:28;;;;;;;6.27;3.13;;;11.20;99.90;;;;;;5013827;28;20194;-80
2021/05/23 02:23:59;;;;;;;9.93;3.93;;;11.00;99.90;;;;;;5013637;28;20202;-80
2021/05/23 02:27:26;;;;;;;9.60;3.60;;;11.00;99.90;;;;;;5013919;28;20220;-80
2021/05/23 02:37:25;;;;;;;7.77;3.23;;;11.00;99.90;;;;;;4910485;29;20189;-80
2021/05/23 02:47:37;;;;;;;;;;;;;;;;;;;;;
2021/05/23 02:54:54;;;;;;;10.87;4.10;;;10.60;99.90;;;;;;4933607;29;20244;-80
2021/05/23 03:01:39;;;;;;;;;;;;;;;;;;;;;
2021/05/23 03:04:40;;;;;;;12.17;3.63;;;10.70;99.90;;;;;;4895812;29;20185;-81
2021/05/23 03:07:54;;;;;;;8.53;3.37;;;10.60;99.90;;;;;;4895873;29;20208;-81
2021/05/23 03:10:54;;;;;;;9.97;3.70;;;10.50;99.90;;;;;;4895425;29;20190;-80
2021/05/23 03:14:00;;;;;;;;;;;;;;;;;;;;;
2021/05/23 03:20:08;;;;;;;9.73;3.80;;;10.50;99.90;;;;;;4933158;29;20259;-80
2021/05/23 03:26:20;;;;;;;8.77;4.37;;;10.50;99.90;;;;;;4932888;29;20190;-80
2021/05/23 03:32:55;;;;;;;;;;;;;;;;;;;;;
2021/05/23 03:39:26;;;;;;;;;;;;;;;;;;;;;
2021/05/23 03:46:13;;;;;;;;;;;;;;;;;;;;;
2021/05/23 03:48:16;;;;;;;12.10;3.57;;;10.20;99.90;;;;;;4934041;29;20189;-81
2021/05/23 03:51:13;;;;;;;10.70;3.73;;;10.10;99.90;;;;;;4937050;29;20185;-80
2021/05/23 03:54:47;;;;;;;12.70;3.80;;;10.10;99.90;;;;;;4935213;29;20672;-80
2021/05/23 03:57:24;;;;;;;9.57;3.87;;;10.00;99.90;;;;;;4939694;29;20577;-80
2021/05/23 04:00:02;;;;;;;10.87;3.53;;;10.00;99.90;;;;;;4984263;28;20208;-80
2021/05/23 04:02:47;;;;;;;12.40;3.57;;;10.00;99.90;;;;;;5016607;28;20170;-80
2021/05/23 04:05:28;;;;;;;10.30;3.90;;;9.90;99.90;;;;;;5016325;28;20190;-81
2021/05/23 04:08:03;;;;;;;10.97;3.47;;;9.80;99.90;;;;;;5016315;28;20177;-84
2021/05/23 04:10:52;;;;;;;;;;;;;;;;;;;;;
2021/05/23 04:17:09;;;;;;;;;;;;;;;;;;;;;
2021/05/23 04:20:13;;;;;;;8.23;3.40;;;9.60;99.90;;;;;;5016073;28;20189;-80
2021/05/23 04:23:07;;;;;;;8.47;2.93;;;9.60;99.90;;;;;;5015851;28;20174;-81
2021/05/23 04:25:55;;;;;;;8.87;3.00;;;9.60;99.90;;;;;;5015848;28;20182;-80
2021/05/23 04:28:38;;;;;;;13.13;4.10;;;9.60;99.90;;;;;;5016892;28;20222;-80
2021/05/23 04:31:49;;;;;;;6.17;2.90;;;9.70;99.90;;;;;;5016094;28;20182;-80
2021/05/23 04:34:54;;;;;;;9.47;3.83;;;9.70;99.90;;;;;;5015490;28;20189;-80
2021/05/23 04:37:39;;;;;;;9.60;3.03;;;9.80;99.90;;;;;;5015318;28;20182;-80
2021/05/23 04:40:09;;;;;;;14.63;3.27;;;9.80;99.90;;;;;;5015636;28;20179;-80
2021/05/23 04:42:49;;;;;;;11.80;3.63;;;9.70;99.90;;;;;;5015851;28;20236;-80
2021/05/23 04:45:22;;;;;;;10.23;3.13;;;9.70;99.90;;;;;;5015707;28;20163;-80
2021/05/23 04:48:10;;;;;;;11.50;3.40;;;9.80;99.90;;;;;;5015574;28;20245;-80
2021/05/23 04:50:49;;;;;;;7.97;3.10;;;9.90;99.90;;;;;;5015544;28;20178;-80
2021/05/23 04:53:22;;;;;;;13.63;3.33;;;9.90;99.90;;;;;;5014359;28;20177;-80
2021/05/23 04:55:53;;;;;;;13.57;3.10;;;9.90;99.90;;;;;;5015531;28;20174;-80
2021/05/23 04:58:24;;;;;;;7.37;2.93;;;9.90;99.90;;;;;;5015436;28;20206;-80
2021/05/23 05:00:52;;;;;;;8.87;3.00;;;10.00;99.90;;;;;;5016121;28;20253;-79
2021/05/23 05:03:18;;;;;;;8.70;3.17;;;10.10;99.70;;;;;;5015891;28;20178;-82
2021/05/23 05:05:47;;;;;;;13.43;3.20;;;10.00;99.70;;;;;;5015474;28;20765;-81
2021/05/23 05:08:12;;;;;;;12.50;3.00;;;10.00;99.90;;;;;;5015403;28;20174;-82
2021/05/23 05:10:39;;;;;;;8.63;2.87;;;10.10;99.20;;;;;;5015665;28;20187;-81
2021/05/23 05:13:05;;;;;;;7.53;2.80;;;10.00;98.70;;;;;;5015345;28;20188;-81
2021/05/23 05:15:39;;;;;;;8.53;2.70;;;10.10;99.40;;;;;;5015391;28;20249;-82
2021/05/23 05:18:05;;;;;;;11.37;3.80;;;10.10;99.20;;;;;;5015357;28;20344;-80
2021/05/23 05:20:38;;;;;;;7.47;3.07;;;10.10;98.10;;;;;;5014764;28;20175;-80
2021/05/23 05:23:20;;;;;;;9.93;3.10;;;10.10;98.40;;;;;;5014843;28;20174;-80
2021/05/23 05:25:55;;;;;;;8.47;2.77;;;10.00;98.60;;;;;;5015313;28;20705;-79
2021/05/23 05:28:26;;;;;;;9.93;3.10;;;9.90;98.40;;;;;;5014950;28;20580;-80
2021/05/23 05:31:27;;;;;;;11.87;3.03;;;10.10;97.90;;;;;;5014980;28;20174;-80
2021/05/23 05:33:55;;;;;;;8.93;2.80;;;10.10;98.20;;;;;;5013383;28;20610;-79
2021/05/23 05:36:36;;;;;;;9.60;3.23;;;10.10;98.00;;;;;;5013478;28;20301;-79
2021/05/23 05:39:39;;;;;;;8.83;2.67;;;10.20;97.60;;;;;;5013502;28;20743;-80
2021/05/23 05:42:20;;;;;;;14.90;3.23;;;10.30;97.30;;;;;;5006445;28;20200;-80
2021/05/23 05:45:32;;;;;;;7.67;2.80;;;10.20;97.50;;;;;;5013364;28;20178;-80
2021/05/23 05:47:58;;;;;;;7.47;2.50;;;10.20;96.60;;;;;;5012137;28;20662;-80
2021/05/23 05:50:43;;;;;;;8.30;2.80;;;10.20;96.70;;;;;;5014003;28;20244;-80
2021/05/23 05:53:09;;;;;;;8.00;2.87;;;10.20;95.80;;;;;;5031812;28;20185;-80
2021/05/23 05:55:46;;;;;;;7.40;2.63;;;10.30;95.80;;;;;;5032060;28;20212;-80
2021/05/23 05:58:14;;;;;;;7.57;2.20;;;10.40;95.20;;;;;;5031712;28;20307;-83
2021/05/23 06:01:22;;;;;;;8.40;2.57;;;10.40;95.30;;;;;;5031662;28;20189;-80
2021/05/23 06:04:19;;;;;;;9.43;2.33;;;10.40;94.90;;;;;;5022922;28;20847;-85
2021/05/23 06:07:34;;;;;;;;;;;;;;;;;;;;;
2021/05/23 06:18:02;;;;;;;;;;;;;;;;;;;;;
2021/05/23 06:20:37;;;;;;;9.47;2.57;;;10.70;92.30;;;;;;4872364;29;20223;-80
2021/05/23 06:23:12;;;;;;;7.77;2.57;;;10.70;92.10;;;;;;4919067;29;20225;-80
2021/05/23 06:25:38;;;;;;;7.70;2.63;;;10.70;92.00;;;;;;4995697;28;20280;-84
2021/05/23 06:28:04;;;;;;;7.40;2.30;;;10.80;91.20;;;;;;5012551;28;20257;-80
2021/05/23 06:30:38;;;;;;;7.23;2.50;;;10.70;92.10;;;;;;5013768;28;20170;-80
2021/05/23 06:33:08;;;;;;;10.37;2.67;;;10.80;92.50;;;;;;5013336;28;20170;-80
2021/05/23 06:35:39;;;;;;;10.07;2.57;;;10.90;91.80;;;;;;5013890;28;20182;-80
2021/05/23 06:38:33;;;;;;;8.13;2.53;;;11.00;91.00;;;;;;5013623;28;20289;-82
2021/05/23 06:41:03;;;;;;;10.73;2.80;;;11.00;90.00;;;;;;5009041;28;20296;-80
2021/05/23 06:43:42;;;;;;;9.93;2.63;;;11.20;86.70;;;;;;5013469;28;20173;-80
2021/05/23 06:46:08;;;;;;;6.53;2.27;;;11.20;89.90;;;;;;5013828;28;20174;-80
2021/05/23 06:48:34;;;;;;;6.57;2.10;;;11.30;89.50;;;;;;5012940;28;20235;-82
2021/05/23 06:51:00;;;;;;;7.03;2.70;;;11.50;84.00;;;;;;5012643;28;20174;-80
2021/05/23 06:53:28;;;;;;;5.03;2.00;;;11.50;81.90;;;;;;5012080;28;20222;-80
2021/05/23 06:56:04;;;;;;;5.67;2.00;;;11.50;78.90;;;;;;5013292;28;20190;-80
2021/05/23 06:58:38;;;;;;;9.87;2.30;;;11.50;77.00;;;;;;5012756;28;20253;-80
2021/05/23 07:01:04;;;;;;;8.27;2.60;;;11.50;75.90;;;;;;5012406;28;20167;-80
2021/05/23 07:03:52;;;;;;;5.43;2.10;;;11.60;80.30;;;;;;5012675;28;20249;-80
2021/05/23 07:06:18;;;;;;;5.60;1.87;;;11.60;73.60;;;;;;5011977;28;20213;-79
2021/05/23 07:08:44;;;;;;;6.47;2.00;;;11.70;71.30;;;;;;5013153;28;20190;-80
2021/05/23 07:11:13;;;;;;;9.07;1.93;;;11.80;70.40;;;;;;5013081;28;20193;-80
2021/05/23 07:13:39;;;;;;;6.80;1.53;;;11.80;66.90;;;;;;5011463;28;20260;-80
2021/05/23 07:16:05;;;;;;;9.43;1.93;;;11.90;55.00;;;;;;5013197;28;20305;-86
2021/05/23 07:18:31;;;;;;;8.00;2.00;;;11.90;60.10;;;;;;5012884;28;20217;-80
2021/05/23 07:21:00;;;;;;;6.07;2.20;;;12.10;63.70;;;;;;5012683;28;20186;-80
2021/05/23 07:23:27;;;;;;;8.30;2.23;;;12.20;59.60;;;;;;5016618;28;20255;-80
2021/05/23 07:25:53;;;;;;;6.13;1.80;;;12.20;58.10;;;;;;5017077;28;20170;-81
2021/05/23 07:28:18;;;;;;;7.87;2.53;;;12.20;52.40;;;;;;5015606;28;20649;-81
2021/05/23 07:30:44;;;;;;;4.80;1.90;;;12.30;50.60;;;;;;5015665;28;20170;-79
2021/05/23 07:33:10;;;;;;;5.73;1.70;;;12.30;52.50;;;;;;5015758;28;20190;-79
2021/05/23 07:35:36;;;;;;;6.93;1.60;;;12.30;48.20;;;;;;5016565;28;20174;-81
2021/05/23 07:38:02;;;;;;;7.00;1.90;;;12.30;44.20;;;;;;5016172;28;20280;-80
2021/05/23 07:40:28;;;;;;;7.37;1.90;;;12.30;42.00;;;;;;5016569;28;20179;-80
2021/05/23 07:43:07;;;;;;;6.47;2.17;;;12.20;38.90;;;;;;5007945;28;20230;-79
2021/05/23 07:45:45;;;;;;;4.73;1.50;;;12.10;41.10;;;;;;4996917;28;20258;-80
2021/05/23 07:48:11;;;;;;;5.90;2.20;;;12.10;38.10;;;;;;5011537;28;20173;-81
2021/05/23 07:50:37;;;;;;;6.37;2.10;;;12.20;40.50;;;;;;5021327;28;20174;-80
2021/05/23 07:53:02;;;;;;;8.50;2.23;;;12.50;38.20;;;;;;5015266;28;20174;-81
2021/05/23 07:55:29;;;;;;;9.37;1.90;;;12.50;33.90;;;;;;5017790;28;20209;-78
2021/05/23 07:57:54;;;;;;;6.73;1.73;;;12.60;37.60;;;;;;5022303;28;20642;-78
2021/05/23 08:00:20;;;;;;;6.80;2.47;;;12.60;40.20;;;;;;5014770;28;20205;-79
2021/05/23 08:02:46;;;;;;;7.80;1.90;;;12.80;35.30;;;;;;5015991;28;20174;-79
2021/05/23 08:05:12;;;;;;;5.47;1.60;;;12.80;39.70;;;;;;5007674;28;20187;-79
2021/05/23 08:07:38;;;;;;;6.70;1.50;;;12.70;25.60;;;;;;5007060;28;20258;-80
2021/05/23 08:10:05;;;;;;;8.73;2.10;;;12.70;26.90;;;;;;5014751;28;20205;-80
2021/05/23 08:12:32;;;;;;;6.63;2.40;;;12.50;32.70;;;;;;5014492;28;20182;-79
2021/05/23 08:14:59;;;;;;;8.53;2.23;;;12.50;37.10;;;;;;5014681;28;20169;-80
2021/05/23 08:17:24;;;;;;;5.43;1.70;;;12.60;41.50;;;;;;5015295;28;20173;-82
2021/05/23 08:19:50;;;;;;;6.30;1.90;;;12.90;43.00;;;;;;5016101;28;20179;-81
2021/05/23 08:22:15;;;;;;;5.63;2.10;;;12.80;37.00;;;;;;5018474;28;20280;-80
2021/05/23 08:24:41;;;;;;;8.07;2.20;;;13.00;25.00;;;;;;5017489;28;20274;-78
2021/05/23 08:27:07;;;;;;;8.43;2.07;;;12.90;24.90;;;;;;5015728;28;20205;-81
2021/05/23 08:29:33;;;;;;;6.97;1.83;;;12.90;30.20;;;;;;5021090;28;20178;-82
2021/05/23 08:32:00;;;;;;;5.63;1.60;;;12.70;31.60;;;;;;5025434;28;20631;-81
2021/05/23 08:34:25;;;;;;;6.73;1.77;;;12.70;32.80;;;;;;5016049;28;20273;-78
2021/05/23 08:36:51;;;;;;;3.60;1.67;;;12.60;33.00;;;;;;5017498;28;20202;-81
2021/05/23 08:39:17;;;;;;;6.23;2.33;;;12.70;27.90;;;;;;5016903;28;20217;-83
2021/05/23 08:41:47;;;;;;;5.63;2.07;;;12.60;26.30;;;;;;5016307;28;20188;-82
2021/05/23 08:44:18;;;;;;;4.97;2.03;;;12.50;27.60;;;;;;5015618;28;20178;-81
2021/05/23 08:46:46;;;;;;;8.97;2.17;;;12.60;34.70;;;;;;5014933;28;20579;-81
2021/05/23 08:49:15;;;;;;;8.20;2.03;;;12.60;37.70;;;;;;5016084;28;20185;-80
2021/05/23 08:51:40;;;;;;;6.30;1.67;;;12.70;30.90;;;;;;5015574;28;20266;-80
2021/05/23 08:54:06;;;;;;;4.93;1.83;;;12.90;30.40;;;;;;5016602;28;20198;-82
2021/05/23 08:56:32;;;;;;;7.77;1.97;;;13.00;21.80;;;;;;5015337;28;20733;-85
2021/05/23 08:58:57;;;;;;;6.50;1.90;;;13.00;24.60;;;;;;5015123;28;20728;-81
2021/05/23 09:01:26;;;;;;;7.13;2.00;;;13.10;28.40;;;;;;5015118;28;20254;-80
2021/05/23 09:03:59;;;;;;;5.07;1.33;;;13.10;21.10;;;;;;5014929;28;20175;-78
2021/05/23 09:06:27;;;;;;;5.73;1.90;;;12.90;17.10;;;;;;5015740;28;20694;-79
2021/05/23 09:08:59;;;;;;;7.57;1.90;;;12.70;22.00;;;;;;5023358;28;20178;-78
2021/05/23 09:11:25;;;;;;;5.13;2.20;;;12.70;26.80;;;;;;5019805;28;20247;-78
2021/05/23 09:13:53;;;;;;;7.40;2.30;;;12.60;30.20;;;;;;5017914;28;20198;-78
2021/05/23 09:16:19;;;;;;;5.40;1.97;;;12.80;29.80;;;;;;5014705;28;20193;-82
2021/05/23 09:18:53;;;;;;;3.77;1.47;;;12.90;31.50;;;;;;5013448;28;20248;-80
2021/05/23 09:21:23;;;;;;;6.57;1.60;;;13.10;23.80;;;;;;5013918;28;20650;-80
2021/05/23 09:23:51;;;;;;;5.97;1.60;;;13.50;18.80;;;;;;5012555;28;20233;-78
2021/05/23 09:26:21;;;;;;;3.73;1.50;;;13.60;5.40;;;;;;5013249;28;20167;-81
2021/05/23 09:28:48;;;;;;;7.13;1.80;;;13.50;10.20;;;;;;5013907;28;20174;-78
2021/05/23 09:31:17;;;;;;;8.17;2.13;;;13.30;12.70;;;;;;5012829;28;20170;-79
2021/05/23 09:33:45;;;;;;;6.10;1.70;;;13.40;15.90;;;;;;5013124;28;20166;-79
2021/05/23 09:36:12;;;;;;;4.20;1.57;;;13.40;15.80;;;;;;5012984;28;20166;-79
2021/05/23 09:38:41;;;;;;;2.73;1.20;;;13.20;9.60;;;;;;5011730;28;20210;-79
2021/05/23 09:41:20;;;;;;;6.83;1.80;;;13.00;14.70;;;;;;5012583;28;20586;-79
2021/05/23 09:43:46;;;;;;;4.97;1.63;;;13.10;12.20;;;;;;5012223;28;20201;-79
2021/05/23 09:46:12;;;;;;;6.50;1.70;;;13.10;9.20;;;;;;5012511;28;20664;-78
2021/05/23 09:48:38;;;;;;;4.13;1.60;;;13.40;6.80;;;;;;5012473;28;20175;-78
2021/05/23 09:51:14;;;;;;;5.33;1.70;;;13.60;5.30;;;;;;5012166;28;20178;-79
2021/05/23 09:53:42;;;;;;;7.47;1.50;;;13.90;1.00;;;;;;5010904;28;20168;-80
2021/05/23 09:56:13;;;;;;;7.07;1.80;;;14.10;1.00;;;;;;5011385;28;20193;-79
2021/05/23 09:58:47;;;;;;;4.73;1.50;;;14.20;1.00;;;;;;5013009;28;20225;-80
2021/05/23 10:01:28;;;;;;;3.33;1.27;;;14.10;1.00;;;;;;5013026;28;20196;-78
2021/05/23 10:03:56;;;;;;;3.03;1.10;;;14.00;1.00;;;;;;5012288;28;20543;-79
2021/05/23 10:06:29;;;;;;;5.53;1.43;;;14.00;1.00;;;;;;5012950;28;20257;-79
2021/05/23 10:08:56;;;;;;;6.43;1.37;;;14.20;1.00;;;;;;5012907;28;20166;-79
2021/05/23 10:11:22;;;;;;;3.40;1.50;;;14.20;1.00;;;;;;5011467;28;20869;-79
2021/05/23 10:13:48;;;;;;;3.67;1.30;;;14.50;1.00;;;;;;5014202;28;20173;-78
2021/05/23 10:16:15;;;;;;;5.40;1.60;;;14.40;1.00;;;;;;5013429;28;20234;-80
2021/05/23 10:18:41;;;;;;;4.00;1.50;;;14.40;1.00;;;;;;5012942;28;20213;-79
2021/05/23 10:21:08;;;;;;;4.47;1.63;;;14.50;1.00;;;;;;5012058;28;20190;-79
2021/05/23 10:23:42;;;;;;;5.60;1.57;;;14.40;1.00;;;;;;5013149;28;20174;-80
2021/05/23 10:26:11;;;;;;;6.77;1.93;;;14.50;1.00;;;;;;5012692;28;20166;-76
2021/05/23 10:28:42;;;;;;;4.70;1.70;;;14.60;1.00;;;;;;5012691;28;20181;-75
2021/05/23 10:31:09;;;;;;;7.27;1.40;;;14.80;1.00;;;;;;5016983;28;20713;-76
2021/05/23 10:33:35;;;;;;;7.20;2.23;;;14.60;1.00;;;;;;5012924;28;20261;-76
2021/05/23 10:36:05;;;;;;;6.10;1.73;;;14.50;1.00;;;;;;5012993;28;20174;-77
2021/05/23 10:38:31;;;;;;;5.03;1.83;;;14.60;1.00;;;;;;5013027;28;20217;-76
2021/05/23 10:41:00;;;;;;;6.80;1.80;;;14.20;1.00;;;;;;5013696;28;20171;-76
2021/05/23 10:43:28;;;;;;;5.60;1.50;;;14.10;1.00;;;;;;5013793;28;20175;-77
2021/05/23 10:46:14;;;;;;;5.23;2.10;;;14.10;1.00;;;;;;5013866;28;20249;-79
2021/05/23 10:48:55;;;;;;;4.20;1.60;;;14.10;1.00;;;;;;5013312;28;20189;-75
2021/05/23 10:51:22;;;;;;;5.37;1.67;;;14.40;1.00;;;;;;5013013;28;20185;-76
2021/05/23 10:53:48;;;;;;;5.07;1.50;;;14.70;1.00;;;;;;5013017;28;20170;-78
2021/05/23 10:56:32;;;;;;;7.07;1.67;;;14.60;1.00;;;;;;5011915;28;20202;-75
2021/05/23 10:59:03;;;;;;;3.27;1.50;;;14.40;1.00;;;;;;5012777;28;20296;-76
2021/05/23 11:01:46;;;;;;;5.17;1.70;;;14.30;1.00;;;;;;5012816;28;20201;-77
2021/05/23 11:04:19;;;;;;;5.03;1.87;;;14.30;1.00;;;;;;5013234;28;20201;-78
2021/05/23 11:06:47;;;;;;;6.13;1.80;;;14.40;1.00;;;;;;5013145;28;20178;-77
2021/05/23 11:09:20;;;;;;;3.77;1.37;;;14.50;1.00;;;;;;5012456;28;20232;-77
2021/05/23 11:11:46;;;;;;;5.03;1.37;;;14.60;1.00;;;;;;5011159;28;20237;-77
2021/05/23 11:14:18;;;;;;;4.10;1.63;;;14.60;1.00;;;;;;5014071;28;20171;-76
2021/05/23 11:16:49;;;;;;;3.63;1.30;;;14.50;1.00;;;;;;5012067;28;20237;-76
2021/05/23 11:19:15;;;;;;;2.50;1.33;;;14.60;1.00;;;;;;5013843;28;20292;-76
2021/05/23 11:21:42;;;;;;;5.40;1.30;;;14.80;1.00;;;;;;5013046;28;20229;-76
2021/05/23 11:24:09;;;;;;;3.03;1.13;;;14.90;1.00;;;;;;5012917;28;20202;-77
2021/05/23 11:26:36;;;;;;;2.57;0.97;;;15.10;1.00;;;;;;5013021;28;20604;-76
2021/05/23 11:29:03;;;;;;;8.20;1.37;;;15.30;1.00;;;;;;5012533;28;20164;-77
2021/05/23 11:31:32;;;;;;;5.00;1.10;;;14.90;1.00;;;;;;5012898;28;20532;-76
2021/05/23 11:33:59;;;;;;;6.20;1.53;;;14.90;1.00;;;;;;5012601;28;20170;-75
2021/05/23 11:36:30;;;;;;;4.23;1.50;;;14.90;1.00;;;;;;5012692;28;20638;-76
2021/05/23 11:38:57;;;;;;;4.10;1.27;;;14.90;1.00;;;;;;5011712;28;20704;-76
2021/05/23 11:41:35;;;;;;;4.33;1.27;;;14.80;1.00;;;;;;5012423;28;20231;-76
2021/05/23 11:44:02;;;;;;;2.87;1.10;;;14.60;1.00;;;;;;5012397;28;20168;-76
2021/05/23 11:46:29;;;;;;;4.60;1.30;;;14.70;1.00;;;;;;5012784;28;20163;-78
2021/05/23 11:48:56;;;;;;;3.33;1.10;;;14.90;1.00;;;;;;5012024;28;20225;-76
2021/05/23 11:51:30;;;;;;;4.47;1.73;;;15.00;1.00;;;;;;5012262;28;20167;-76
2021/05/23 11:53:58;;;;;;;3.20;1.30;;;15.20;1.00;;;;;;5011997;28;20169;-77
2021/05/23 11:56:26;;;;;;;3.97;1.10;;;15.20;1.00;;;;;;5012449;28;20184;-76
2021/05/23 11:59:08;;;;;;;4.17;1.40;;;15.30;1.00;;;;;;5010688;28;20216;-76
2021/05/23 12:01:37;;;;;;;3.63;1.07;;;15.20;1.00;;;;;;5010937;28;20172;-76
2021/05/23 12:04:13;;;;;;;5.93;1.47;;;15.30;1.00;;;;;;5011250;28;20197;-76
2021/05/23 12:06:53;;;;;;;2.40;1.17;;;15.50;1.00;;;;;;5012821;28;20171;-76
2021/05/23 12:09:23;;;;;;;3.47;1.40;;;15.60;1.00;;;;;;5015351;28;20192;-76
2021/05/23 12:11:51;;;;;;;3.50;1.20;;;15.70;1.00;;;;;;5014589;28;20194;-76
2021/05/23 12:14:27;;;;;;;6.30;1.50;;;15.80;1.00;;;;;;5016095;28;20194;-75
2021/05/23 12:17:04;;;;;;;5.53;1.60;;;15.90;1.00;;;;;;5014713;28;20256;-76
2021/05/23 12:19:53;;;;;;;6.53;1.53;;;15.70;1.00;;;;;;5016418;28;20701;-76
2021/05/23 12:22:36;;;;;;;4.93;1.30;;;15.60;1.00;;;;;;5015372;28;20193;-77
2021/05/23 12:25:04;;;;;;;3.03;1.30;;;15.60;1.00;;;;;;5015749;28;20173;-75
2021/05/23 12:27:33;;;;;;;3.37;1.40;;;15.60;1.00;;;;;;5015860;28;20698;-76
2021/05/23 12:30:13;;;;;;;3.50;1.20;;;15.50;1.00;;;;;;5016251;28;20246;-75
2021/05/23 12:32:44;;;;;;;4.10;1.40;;;15.40;1.00;;;;;;5015227;28;20168;-76
2021/05/23 12:35:23;;;;;;;2.13;1.03;;;15.40;1.00;;;;;;5015268;28;20574;-76
2021/05/23 12:37:53;;;;;;;4.10;1.57;;;15.50;1.00;;;;;;5014486;28;20284;-78
2021/05/23 12:40:24;;;;;;;4.97;1.60;;;15.70;1.00;;;;;;5015045;28;20184;-77
2021/05/23 12:42:52;;;;;;;4.27;1.03;;;15.70;1.00;;;;;;5014821;28;20270;-77
2021/05/23 12:45:18;;;;;;;3.07;1.53;;;15.50;1.00;;;;;;5013159;28;20264;-76
2021/05/23 12:47:54;;;;;;;4.47;1.23;;;15.60;1.00;;;;;;5013836;28;20182;-76
2021/05/23 12:50:39;;;;;;;4.87;1.67;;;15.90;1.00;;;;;;5013968;28;20181;-77
2021/05/23 12:53:05;;;;;;;2.83;1.33;;;16.10;1.00;;;;;;5013773;28;20178;-79
2021/05/23 12:55:37;;;;;;;4.20;1.27;;;16.40;1.00;;;;;;5015054;28;20171;-77
2021/05/23 12:58:03;;;;;;;2.77;1.30;;;16.60;1.00;;;;;;5014647;28;20202;-78
2021/05/23 13:00:29;;;;;;;3.17;1.17;;;16.40;1.00;;;;;;5014540;28;20236;-76
2021/05/23 13:03:10;;;;;;;2.80;1.20;;;16.50;1.00;;;;;;5014551;28;20178;-77
2021/05/23 13:05:37;;;;;;;3.13;1.07;;;16.70;99.90;;;;;;5014379;28;20315;-77
2021/05/23 13:08:15;;;;;;;3.23;0.97;;;16.60;99.90;;;;;;5015149;28;20252;-76
2021/05/23 13:10:42;;;;;;;3.27;1.20;;;16.50;1.00;;;;;;5012577;28;20602;-75
2021/05/23 13:13:08;;;;;;;1.90;0.90;;;16.00;99.90;;;;;;5014216;28;20616;-79
2021/05/23 13:15:34;;;;;;;2.40;0.83;;;16.10;99.90;;;;;;5014364;28;20182;-77
2021/05/23 13:18:00;;;;;;;2.27;0.90;;;16.20;99.90;;;;;;5013870;28;20209;-76
2021/05/23 13:20:31;;;;;;;2.17;1.07;;;16.30;99.90;;;;;;5013636;28;20196;-76
2021/05/23 13:22:58;;;;;;;2.73;1.13;;;16.50;99.90;;;;;;5013175;28;20522;-76
2021/05/23 13:25:25;;;;;;;2.07;1.30;;;16.40;99.90;;;;;;5014583;28;20178;-76
2021/05/23 13:27:53;;;;;;;2.83;1.20;;;16.20;1.00;;;;;;5012970;28;20533;-76
2021/05/23 13:30:19;;;;;;;6.00;1.13;;;16.20;1.00;;;;;;5014192;28;20182;-76
2021/05/23 13:32:47;;;;;;;2.63;1.10;;;16.10;1.00;;;;;;5013878;28;20177;-76
2021/05/23 13:35:14;;;;;;;4.93;1.20;;;16.40;1.00;;;;;;5012888;28;20565;-78
2021/05/23 13:37:40;;;;;;;2.43;0.93;;;16.70;99.90;;;;;;5013723;28;20277;-76
2021/05/23 13:40:07;;;;;;;6.10;1.47;;;16.90;99.90;;;;;;5014306;28;20579;-76
2021/05/23 13:42:32;;;;;;;4.00;1.10;;;17.00;99.90;;;;;;5013446;28;20657;-77
2021/05/23 13:44:58;;;;;;;3.43;0.90;;;17.00;99.90;;;;;;5013738;28;20178;-76
2021/05/23 13:47:24;;;;;;;2.87;1.00;;;16.90;99.90;;;;;;5013670;28;20266;-76
2021/05/23 13:49:49;;;;;;;3.90;1.13;;;17.10;1.00;;;;;;5013016;28;20697;-76
2021/05/23 13:52:15;;;;;;;3.13;1.10;;;17.10;99.90;;;;;;5013506;28;20224;-77
2021/05/23 13:54:41;;;;;;;2.30;0.90;;;17.10;41.30;;;;;;5013877;28;20171;-77
2021/05/23 13:57:06;;;;;;;3.00;1.00;;;17.10;99.90;;;;;;5012585;28;20182;-77
2021/05/23 13:59:33;;;;;;;2.73;1.03;;;17.00;99.90;;;;;;5013568;28;20543;-77
2021/05/23 14:01:59;;;;;;;2.03;0.80;;;17.00;99.90;;;;;;5012411;28;20647;-78
2021/05/23 14:04:25;;;;;;;3.30;0.77;;;16.90;99.90;;;;;;5013536;28;20228;-77
2021/05/23 14:06:52;;;;;;;4.43;1.13;;;16.80;99.90;;;;;;5013747;28;20197;-78
2021/05/23 14:09:21;;;;;;;2.63;1.03;;;16.90;99.90;;;;;;5013616;28;20612;-77
2021/05/23 14:11:47;;;;;;;4.23;0.90;;;17.00;99.90;;;;;;5011796;28;20676;-77
2021/05/23 14:14:14;;;;;;;3.83;1.10;;;17.20;99.90;;;;;;5011809;28;20591;-76
2021/05/23 14:16:40;;;;;;;2.27;0.80;;;17.30;99.90;;;;;;5012843;28;20199;-77
2021/05/23 14:19:06;;;;;;;2.40;1.00;;;17.20;99.90;;;;;;5012870;28;20283;-76
2021/05/23 14:21:33;;;;;;;2.70;1.10;;;17.20;99.90;;;;;;5013625;28;20190;-77
2021/05/23 14:23:59;;;;;;;2.03;0.90;;;17.10;99.90;;;;;;5013289;28;20170;-75
2021/05/23 14:26:27;;;;;;;3.53;0.90;;;17.10;99.90;;;;;;5013689;28;20170;-75
2021/05/23 14:28:53;;;;;;;3.07;1.00;;;17.10;99.90;;;;;;5013594;28;20166;-77